Time;durP1;ratioP1;P1;durP2;ratioP2;P2;SDS_P1;SDS_P2;PMS_P1;PMS_P2;Temp;Humidity;BMP_temperature;BMP_pressure;BME280_temperature;BME280_humidity;BME280_pressure;Samples;Min_cycle;Max_cycle;Signal;HPM_P1;HPM_P2
2021/08/17 00:02:42;;;;;;;7.60;1.48;;;13.70;99.90;;;;;;20415579;28;20048;-81
2021/08/17 00:12:43;;;;;;;3.20;1.20;;;13.60;99.90;;;;;;20385740;28;20042;-81
2021/08/17 00:22:44;;;;;;;2.13;0.43;;;13.40;99.90;;;;;;20353390;28;20054;-80
2021/08/17 00:32:46;;;;;;;1.67;0.50;;;13.30;99.90;;;;;;20409198;28;20437;-81
2021/08/17 00:42:48;;;;;;;1.83;0.32;;;13.20;99.90;;;;;;20293700;28;20451;-80
2021/08/17 00:52:50;;;;;;;4.90;0.90;;;13.00;99.90;;;;;;20396804;28;20048;-81
2021/08/17 01:02:51;;;;;;;1.70;0.77;;;12.80;99.90;;;;;;20354062;28;20520;-83
2021/08/17 01:12:52;;;;;;;18.40;0.82;;;12.70;99.90;;;;;;20328676;28;20051;-81
2021/08/17 01:22:54;;;;;;;1.50;0.50;;;12.60;99.90;;;;;;20471283;28;20046;-81
2021/08/17 01:32:55;;;;;;;3.72;0.75;;;12.50;99.90;;;;;;20398737;28;20042;-81
2021/08/17 01:42:56;;;;;;;4.68;0.70;;;12.40;99.90;;;;;;20360986;28;20506;-82
2021/08/17 01:52:57;;;;;;;3.10;0.63;;;12.30;99.90;;;;;;20387354;28;20051;-81
2021/08/17 02:02:58;;;;;;;1.40;0.35;;;12.30;99.90;;;;;;20401832;28;20531;-83
2021/08/17 02:12:59;;;;;;;5.85;0.95;;;12.20;99.90;;;;;;20421703;28;20058;-81
2021/08/17 02:23:01;;;;;;;1.65;1.00;;;12.30;99.90;;;;;;20469103;28;20053;-81
2021/08/17 02:33:02;;;;;;;1.15;0.47;;;12.30;99.90;;;;;;20380321;28;20664;-83
2021/08/17 02:43:03;;;;;;;1.92;0.45;;;12.50;99.90;;;;;;20362436;28;20073;-83
2021/08/17 02:53:05;;;;;;;6.68;0.80;;;12.70;99.90;;;;;;20417545;28;20057;-82
2021/08/17 03:03:06;;;;;;;1.55;0.30;;;12.80;99.90;;;;;;20447254;28;20054;-83
2021/08/17 03:13:08;;;;;;;1.00;0.55;;;12.90;99.90;;;;;;20483193;28;20046;-83
2021/08/17 03:23:13;;;;;;;1.88;0.73;;;12.90;99.90;;;;;;20442301;28;20051;-83
2021/08/17 03:33:14;;;;;;;1.15;0.40;;;12.90;99.90;;;;;;20370751;28;20325;-82
2021/08/17 03:43:15;;;;;;;3.92;0.50;;;13.00;99.90;;;;;;20456099;28;20039;-81
2021/08/17 03:53:17;;;;;;;4.13;0.80;;;13.10;99.90;;;;;;20415897;28;20043;-83
2021/08/17 04:03:18;;;;;;;1.70;0.55;;;13.10;99.90;;;;;;20409518;28;20047;-83
2021/08/17 04:13:19;;;;;;;2.58;1.20;;;13.10;99.90;;;;;;20386356;28;20042;-82
2021/08/17 04:23:20;;;;;;;4.80;0.95;;;12.90;99.90;;;;;;20404848;28;20042;-83
2021/08/17 04:33:21;;;;;;;4.38;1.20;;;12.90;99.90;;;;;;20416795;28;20036;-84
2021/08/17 04:43:22;;;;;;;4.30;1.15;;;12.80;99.90;;;;;;20379314;28;20048;-83
2021/08/17 04:53:23;;;;;;;3.53;1.25;;;12.80;99.90;;;;;;20358518;28;20036;-82
2021/08/17 05:03:26;;;;;;;3.35;1.20;;;12.90;99.90;;;;;;20397266;28;20044;-82
2021/08/17 05:13:28;;;;;;;3.20;1.38;;;13.10;99.90;;;;;;20342262;28;20024;-82
2021/08/17 05:23:29;;;;;;;7.00;1.73;;;13.40;99.90;;;;;;20405749;28;20130;-82
2021/08/17 05:33:31;;;;;;;4.93;1.38;;;13.60;99.90;;;;;;20436788;28;20035;-83
2021/08/17 05:43:33;;;;;;;2.95;1.23;;;13.90;99.90;;;;;;20423880;28;20090;-83
2021/08/17 05:53:34;;;;;;;3.97;1.85;;;14.00;99.90;;;;;;20409156;28;20094;-82
2021/08/17 06:03:35;;;;;;;7.05;2.00;;;14.20;99.90;;;;;;20465046;28;20408;-81
2021/08/17 06:13:36;;;;;;;5.05;1.60;;;14.30;99.90;;;;;;20452294;28;20050;-81
2021/08/17 06:23:37;;;;;;;8.85;2.13;;;14.40;99.90;;;;;;20410373;28;20061;-81
2021/08/17 06:33:38;;;;;;;5.70;2.33;;;14.40;99.90;;;;;;20400404;28;20040;-81
2021/08/17 06:43:40;;;;;;;9.02;3.55;;;14.60;99.90;;;;;;20406306;28;20042;-82
2021/08/17 06:53:41;;;;;;;5.82;2.13;;;14.80;99.90;;;;;;20411325;28;20039;-81
2021/08/17 07:03:43;;;;;;;7.57;2.25;;;15.00;99.90;;;;;;20358679;28;20051;-81
2021/08/17 07:13:46;;;;;;;8.95;2.47;;;15.40;99.90;;;;;;20422144;28;20555;-80
2021/08/17 07:23:47;;;;;;;8.95;2.72;;;15.60;99.90;;;;;;20418010;28;20059;-79
2021/08/17 07:33:48;;;;;;;11.18;2.83;;;15.70;99.90;;;;;;20442842;28;20402;-79
2021/08/17 07:43:49;;;;;;;7.28;3.17;;;15.90;99.90;;;;;;20452454;28;20044;-80
2021/08/17 07:53:50;;;;;;;4.93;1.60;;;16.30;99.90;;;;;;20429452;28;20361;-80
2021/08/17 08:03:51;;;;;;;5.15;1.98;;;16.60;99.90;;;;;;20424197;28;20504;-80
2021/08/17 08:13:52;;;;;;;5.72;2.22;;;16.60;99.90;;;;;;20424785;28;20101;-80
2021/08/17 08:23:54;;;;;;;5.93;1.70;;;16.60;99.90;;;;;;20353442;28;20397;-80
2021/08/17 08:33:55;;;;;;;4.88;1.42;;;16.90;99.90;;;;;;20407236;28;20049;-79
2021/08/17 08:43:57;;;;;;;6.93;1.58;;;17.00;99.90;;;;;;20447861;28;20054;-80
2021/08/17 08:54:06;;;;;;;6.88;1.80;;;16.90;99.90;;;;;;20343052;28;20500;-80
2021/08/17 09:04:08;;;;;;;8.70;1.48;;;16.70;99.90;;;;;;20396356;28;20067;-80
2021/08/17 09:14:29;;;;;;;3.90;1.35;;;16.80;99.90;;;;;;20386575;28;20043;-80
2021/08/17 09:24:35;;;;;;;3.92;1.13;;;16.70;99.90;;;;;;20335986;28;21419;-80
2021/08/17 09:34:37;;;;;;;3.00;1.55;;;16.50;99.90;;;;;;20390245;28;20036;-80
2021/08/17 09:44:39;;;;;;;6.72;1.27;;;16.40;99.90;;;;;;20381347;28;20053;-80
2021/08/17 09:54:42;;;;;;;4.22;1.35;;;16.50;99.90;;;;;;20450591;28;20043;-80
2021/08/17 10:04:51;;;;;;;4.05;1.27;;;16.40;99.90;;;;;;20441250;28;20051;-80
2021/08/17 10:14:52;;;;;;;4.82;1.10;;;16.60;99.90;;;;;;20424644;28;20043;-80
2021/08/17 10:25:04;;;;;;;7.65;2.22;;;16.50;99.90;;;;;;20439522;28;20061;-80
2021/08/17 10:35:07;;;;;;;5.20;1.30;;;16.50;99.90;;;;;;20446562;28;20055;-80
2021/08/17 10:45:26;;;;;;;2.30;0.75;;;16.40;99.90;;;;;;20420619;28;20484;-79
2021/08/17 10:55:37;;;;;;;1.83;0.90;;;16.20;99.90;;;;;;20360006;28;20319;-79
2021/08/17 11:05:51;;;;;;;3.28;1.00;;;15.90;99.90;;;;;;20400797;28;20847;-79
2021/08/17 11:16:06;;;;;;;1.73;0.80;;;15.90;99.90;;;;;;20445882;28;20063;-80
2021/08/17 11:26:08;;;;;;;2.15;0.75;;;15.60;99.90;;;;;;20382708;28;20047;-81
2021/08/17 11:36:24;;;;;;;2.65;0.90;;;15.50;99.90;;;;;;20445567;28;20146;-79
2021/08/17 11:46:25;;;;;;;5.43;1.35;;;15.50;99.90;;;;;;20372608;28;20632;-79
2021/08/17 11:56:26;;;;;;;3.38;1.45;;;15.40;99.90;;;;;;20363242;28;20077;-80
2021/08/17 12:06:28;;;;;;;2.55;1.30;;;15.40;99.90;;;;;;20361989;28;20043;-82
2021/08/17 12:16:29;;;;;;;2.97;1.30;;;15.30;99.90;;;;;;20403466;28;20042;-80
2021/08/17 12:26:34;;;;;;;3.05;1.42;;;15.40;99.90;;;;;;20355589;28;20062;-80
2021/08/17 12:36:41;;;;;;;5.65;1.40;;;15.40;99.90;;;;;;20385444;28;20050;-80
2021/08/17 12:47:09;;;;;;;2.13;0.83;;;15.40;99.90;;;;;;20473598;28;20040;-80
2021/08/17 12:57:10;;;;;;;2.38;1.27;;;15.40;99.90;;;;;;20436330;28;20035;-80
2021/08/17 13:07:11;;;;;;;3.38;1.33;;;15.60;99.90;;;;;;20528744;28;20568;-79
2021/08/17 13:17:12;;;;;;;1.80;0.75;;;15.70;99.90;;;;;;20506347;28;20062;-79
2021/08/17 13:27:14;;;;;;;2.83;1.25;;;15.60;99.90;;;;;;20405897;28;20135;-79
2021/08/17 13:37:15;;;;;;;1.67;0.68;;;15.70;99.90;;;;;;20427461;28;20041;-80
2021/08/17 13:47:16;;;;;;;3.90;1.50;;;15.70;99.90;;;;;;20388500;28;20480;-80
2021/08/17 13:57:20;;;;;;;3.95;1.13;;;15.80;99.90;;;;;;20393326;28;20118;-80
2021/08/17 14:07:21;;;;;;;10.73;6.18;;;15.80;99.90;;;;;;20376508;28;20037;-80
2021/08/17 14:17:22;;;;;;;2.80;1.58;;;15.80;99.90;;;;;;20345077;28;20153;-80
2021/08/17 14:27:23;;;;;;;2.55;1.13;;;15.80;99.90;;;;;;20428179;28;20062;-80
2021/08/17 14:37:24;;;;;;;1.52;0.38;;;15.60;99.90;;;;;;20436472;28;20064;-80
2021/08/17 14:47:26;;;;;;;0.55;0.10;;;15.50;99.90;;;;;;20413384;28;20424;-79
2021/08/17 14:57:27;;;;;;;1.95;0.20;;;15.50;99.90;;;;;;20443608;28;20035;-80
2021/08/17 15:07:28;;;;;;;0.60;0.20;;;15.60;99.90;;;;;;20436015;28;20054;-80
2021/08/17 15:17:30;;;;;;;0.90;0.25;;;15.60;99.90;;;;;;20442552;28;20040;-80
2021/08/17 15:27:31;;;;;;;0.65;0.25;;;15.60;99.90;;;;;;20463050;28;20053;-81
2021/08/17 15:37:34;;;;;;;0.73;0.10;;;15.60;99.90;;;;;;20410705;28;20696;-80
2021/08/17 15:47:36;;;;;;;0.90;0.22;;;15.70;99.90;;;;;;20378548;28;20059;-81
2021/08/17 15:57:44;;;;;;;0.70;0.28;;;15.80;99.90;;;;;;20319761;28;20044;-80
2021/08/17 16:07:48;;;;;;;1.75;0.32;;;15.80;99.90;;;;;;20381953;28;20582;-80
2021/08/17 16:17:50;;;;;;;1.30;0.57;;;15.90;99.90;;;;;;20387270;28;20051;-80
2021/08/17 16:27:52;;;;;;;1.13;0.68;;;16.10;99.90;;;;;;20349541;28;20391;-80
2021/08/17 16:37:53;;;;;;;1.67;0.50;;;16.10;99.90;;;;;;20405629;28;20057;-82
2021/08/17 16:47:54;;;;;;;2.13;0.70;;;16.10;99.90;;;;;;20403624;28;20774;-81
2021/08/17 16:57:55;;;;;;;1.52;0.52;;;16.10;99.90;;;;;;20451039;28;20039;-81
2021/08/17 17:07:57;;;;;;;2.10;0.20;;;16.20;99.90;;;;;;20421701;28;20051;-82
2021/08/17 17:18:00;;;;;;;1.20;0.28;;;16.30;99.90;;;;;;20456987;28;20071;-81
2021/08/17 17:28:01;;;;;;;0.60;0.20;;;16.20;99.90;;;;;;20421216;28;20095;-84
2021/08/17 17:38:02;;;;;;;0.82;0.20;;;16.20;99.90;;;;;;20413676;28;20038;-81
2021/08/17 17:48:04;;;;;;;0.50;0.20;;;16.00;99.90;;;;;;20341933;28;20062;-80
2021/08/17 17:58:05;;;;;;;1.02;0.75;;;15.90;99.90;;;;;;20364401;28;20121;-82
2021/08/17 18:08:06;;;;;;;0.52;0.28;;;15.90;99.90;;;;;;20294987;28;20051;-81
2021/08/17 18:18:07;;;;;;;0.85;0.10;;;15.80;99.90;;;;;;20351993;28;20048;-82
2021/08/17 18:28:08;;;;;;;0.55;0.17;;;15.70;99.90;;;;;;20336545;28;20045;-81
2021/08/17 18:38:10;;;;;;;0.98;0.30;;;15.70;99.90;;;;;;20318684;28;20456;-81
2021/08/17 18:48:11;;;;;;;2.70;0.30;;;15.70;99.90;;;;;;20329850;28;20051;-81
2021/08/17 18:58:12;;;;;;;1.13;0.30;;;15.70;99.90;;;;;;20310516;28;20047;-81
2021/08/17 19:08:14;;;;;;;0.93;0.20;;;15.70;99.90;;;;;;20325370;28;20051;-81
2021/08/17 19:18:16;;;;;;;2.00;0.55;;;15.70;99.90;;;;;;20371241;28;20067;-81
2021/08/17 19:28:17;;;;;;;0.88;0.20;;;15.70;99.90;;;;;;20341787;28;20055;-81
2021/08/17 19:38:18;;;;;;;4.25;0.90;;;15.70;99.90;;;;;;20358704;28;20071;-82
2021/08/17 19:48:20;;;;;;;1.42;0.45;;;15.70;99.90;;;;;;20352690;28;20052;-82
2021/08/17 19:58:23;;;;;;;1.27;0.50;;;15.70;99.90;;;;;;20372571;28;20667;-81
2021/08/17 20:08:24;;;;;;;1.00;0.28;;;15.70;99.90;;;;;;20366038;28;20056;-82
2021/08/17 20:18:25;;;;;;;2.75;0.30;;;15.50;99.90;;;;;;20400856;28;20036;-81
2021/08/17 20:28:26;;;;;;;1.08;0.47;;;15.50;99.90;;;;;;20354296;28;20040;-82
2021/08/17 20:38:27;;;;;;;1.10;0.30;;;15.40;99.90;;;;;;20366791;28;20043;-81
2021/08/17 20:48:28;;;;;;;1.45;0.40;;;15.50;99.90;;;;;;20297990;28;20047;-81
2021/08/17 20:58:30;;;;;;;1.30;0.80;;;15.50;99.90;;;;;;20322678;28;20050;-82
2021/08/17 21:08:31;;;;;;;2.55;0.60;;;15.50;99.90;;;;;;20338183;28;20037;-81
2021/08/17 21:18:32;;;;;;;1.83;0.40;;;15.40;99.90;;;;;;20334808;28;20035;-80
2021/08/17 21:28:34;;;;;;;1.20;0.40;;;15.40;99.90;;;;;;20341852;28;20078;-81
2021/08/17 21:38:35;;;;;;;2.67;0.80;;;15.50;99.90;;;;;;20334965;28;20052;-81
2021/08/17 21:48:36;;;;;;;2.03;0.50;;;15.40;99.90;;;;;;20322978;28;20044;-81
2021/08/17 21:58:38;;;;;;;2.55;0.63;;;15.40;99.90;;;;;;20345959;28;20071;-81
2021/08/17 22:08:39;;;;;;;4.72;0.98;;;15.50;99.90;;;;;;20340050;28;20441;-80
2021/08/17 22:18:40;;;;;;;4.30;0.90;;;15.50;99.90;;;;;;20267288;28;20051;-81
2021/08/17 22:28:45;;;;;;;2.15;0.57;;;15.50;99.90;;;;;;20296588;28;20040;-82
2021/08/17 22:38:46;;;;;;;2.13;1.00;;;15.50;99.90;;;;;;20291266;28;20040;-82
2021/08/17 22:48:47;;;;;;;1.77;0.80;;;15.40;99.90;;;;;;20328811;28;20051;-81
2021/08/17 22:58:48;;;;;;;1.73;0.57;;;15.50;99.90;;;;;;20270136;28;20053;-81
2021/08/17 23:08:49;;;;;;;2.45;1.13;;;15.50;99.90;;;;;;20296383;28;20041;-81
2021/08/17 23:18:50;;;;;;;2.10;0.70;;;15.50;99.90;;;;;;20327312;28;20504;-81
2021/08/17 23:28:52;;;;;;;7.63;1.67;;;15.50;99.90;;;;;;20331003;28;20037;-81
2021/08/17 23:38:53;;;;;;;3.70;1.20;;;15.50;99.90;;;;;;20295581;28;20481;-80
2021/08/17 23:48:54;;;;;;;2.70;1.20;;;15.50;99.90;;;;;;20280857;28;20762;-81
2021/08/17 23:58:55;;;;;;;3.58;1.27;;;15.50;99.90;;;;;;20244698;28;20036;-80
